METAR Data
IDs: Format: Raw Decoded Include TAF

Data at: 1432 UTC 19 Jul 2019

METAR for:KCAG (Craig-Moffat Arpt, CO, US)
Text:KCAG 191353Z AUTO 00000KT 10SM CLR 14/03 A3012 RMK AO2 SLP123 T01390033
Temperature: 13.9°C ( 57°F)
Dewpoint: 3.3°C ( 38°F) [RH = 49%]
Pressure (altimeter):30.12 inches Hg (1020.1 mb) [Sea level pressure: 1012.3 mb]
Winds:calm
Visibility:10 or more sm (16+ km)
Ceiling:at least 12,000 feet AGL
Clouds:sky clear below 12,000 feet AGL
QC Flag:automated observation with no human augmentation